UAL487 KSFO-KBUR
Flight info
| Callsign | UAL487 |
|---|---|
| Flight time | N/A |
| Altitude | 31000 |
| Route | WESLA5 KTINA CISKO RDHOT ROKKR3 |
| Aircraft | B738/M-SDE2E3FGHIRWXY/LB1 |
Departure
| Time | N/A |
|---|---|
| Airport | San Francisco International Airport (KSFO) |
Arrival
| Time | 2026-05-05 18:12 |
|---|---|
| Airport | Hollywood Burbank/Bob Hope Airport (KBUR) |
| Time | Latitude | Longitude | Altitude | Speed | Heading |
|---|---|---|---|---|---|
| 2026-05-05 17:37 | 37.27427 | -122.21462 | 20303 ft | 404 kts | 131° |
| 2026-05-05 17:37 | 37.19192 | -122.11606 | 23200 ft | 414 kts | 130° |
| 2026-05-05 17:38 | 37.10843 | -122.01632 | 25528 ft | 424 kts | 130° |
| 2026-05-05 17:38 | 37.02218 | -121.91361 | 27737 ft | 431 kts | 129° |
| 2026-05-05 17:38 | 36.63451 | -121.47000 | 33033 ft | 469 kts | 128° |
| 2026-05-05 17:38 | 36.41745 | -121.21336 | 33217 ft | 462 kts | 123° |
| 2026-05-05 17:39 | 36.39726 | -121.18350 | 32977 ft | 444 kts | 121° |
| 2026-05-05 17:39 | 36.37663 | -121.15544 | 32764 ft | 438 kts | 126° |
| 2026-05-05 17:39 | 36.35418 | -121.13022 | 32561 ft | 431 kts | 130° |
| 2026-05-05 17:39 | 36.33129 | -121.10688 | 32355 ft | 423 kts | 131° |
| 2026-05-05 17:40 | 36.30849 | -121.08438 | 32164 ft | 418 kts | 132° |
| 2026-05-05 17:40 | 36.28599 | -121.06206 | 31970 ft | 422 kts | 131° |
| 2026-05-05 17:40 | 36.26317 | -121.03922 | 31747 ft | 421 kts | 131° |
| 2026-05-05 17:40 | 36.24047 | -121.01628 | 31578 ft | 422 kts | 131° |
| 2026-05-05 17:41 | 36.21781 | -120.99321 | 31430 ft | 421 kts | 131° |
| 2026-05-05 17:41 | 36.19521 | -120.97011 | 31303 ft | 422 kts | 131° |
| 2026-05-05 17:41 | 36.17252 | -120.94687 | 31217 ft | 425 kts | 131° |
| 2026-05-05 17:41 | 36.14975 | -120.92355 | 31110 ft | 425 kts | 131° |
| 2026-05-05 17:42 | 36.06452 | -120.83665 | 31059 ft | 421 kts | 131° |
| 2026-05-05 17:42 | 35.90728 | -120.67653 | 31087 ft | 426 kts | 131° |
| 2026-05-05 17:43 | 35.86145 | -120.63012 | 31089 ft | 427 kts | 131° |
| 2026-05-05 17:43 | 35.81549 | -120.58361 | 31105 ft | 428 kts | 131° |
| 2026-05-05 17:44 | 35.76936 | -120.53700 | 31097 ft | 429 kts | 131° |
| 2026-05-05 17:44 | 35.72349 | -120.49071 | 31100 ft | 429 kts | 131° |
| 2026-05-05 17:45 | 35.67728 | -120.44423 | 31101 ft | 430 kts | 132° |
| 2026-05-05 17:45 | 35.63071 | -120.39769 | 31113 ft | 431 kts | 132° |
| 2026-05-05 17:46 | 35.58416 | -120.35110 | 31091 ft | 432 kts | 132° |
| 2026-05-05 17:46 | 35.53864 | -120.30385 | 31067 ft | 431 kts | 131° |
| 2026-05-05 17:47 | 35.49346 | -120.25653 | 31061 ft | 418 kts | 131° |
| 2026-05-05 17:47 | 35.44991 | -120.21123 | 31047 ft | 398 kts | 131° |
| 2026-05-05 17:47 | 35.42913 | -120.18969 | 31028 ft | 386 kts | 130° |
| 2026-05-05 17:48 | 35.40856 | -120.16828 | 30386 ft | 392 kts | 130° |
| 2026-05-05 17:48 | 35.38746 | -120.14618 | 29488 ft | 404 kts | 131° |
| 2026-05-05 17:48 | 35.36613 | -120.12400 | 29017 ft | 401 kts | 131° |
| 2026-05-05 17:48 | 35.34518 | -120.10233 | 28672 ft | 397 kts | 131° |
| 2026-05-05 17:49 | 35.32419 | -120.08064 | 28240 ft | 393 kts | 132° |
| 2026-05-05 17:49 | 35.30339 | -120.05914 | 27869 ft | 389 kts | 132° |
| 2026-05-05 17:49 | 35.28277 | -120.03782 | 27488 ft | 386 kts | 132° |
| 2026-05-05 17:49 | 35.26236 | -120.01673 | 27117 ft | 383 kts | 132° |
| 2026-05-05 17:50 | 35.24213 | -119.99583 | 26753 ft | 379 kts | 132° |
| 2026-05-05 17:50 | 35.22211 | -119.97514 | 26402 ft | 376 kts | 133° |
| 2026-05-05 17:50 | 35.20223 | -119.95459 | 26050 ft | 373 kts | 133° |
| 2026-05-05 17:50 | 35.18246 | -119.93418 | 25701 ft | 370 kts | 133° |
| 2026-05-05 17:51 | 35.16315 | -119.91424 | 25347 ft | 368 kts | 134° |
| 2026-05-05 17:51 | 35.14364 | -119.89411 | 25005 ft | 366 kts | 134° |
| 2026-05-05 17:51 | 35.12419 | -119.87406 | 24649 ft | 365 kts | 134° |
| 2026-05-05 17:51 | 35.10477 | -119.85408 | 24296 ft | 364 kts | 135° |
| 2026-05-05 17:52 | 35.08540 | -119.83415 | 23861 ft | 365 kts | 135° |
| 2026-05-05 17:52 | 35.06598 | -119.81421 | 23491 ft | 365 kts | 137° |
| 2026-05-05 17:52 | 35.04659 | -119.79432 | 23080 ft | 363 kts | 137° |
| 2026-05-05 17:52 | 35.02737 | -119.77459 | 22722 ft | 360 kts | 137° |
| 2026-05-05 17:53 | 35.00834 | -119.75506 | 22381 ft | 356 kts | 137° |
| 2026-05-05 17:53 | 34.98969 | -119.73594 | 22048 ft | 353 kts | 137° |
| 2026-05-05 17:53 | 34.97100 | -119.71677 | 21719 ft | 350 kts | 137° |
| 2026-05-05 17:53 | 34.95244 | -119.69775 | 21392 ft | 347 kts | 138° |
| 2026-05-05 17:54 | 34.93403 | -119.67889 | 21069 ft | 344 kts | 138° |
| 2026-05-05 17:54 | 34.91575 | -119.66019 | 20744 ft | 342 kts | 138° |
| 2026-05-05 17:54 | 34.89758 | -119.64161 | 20411 ft | 340 kts | 138° |
| 2026-05-05 17:54 | 34.87956 | -119.62320 | 20092 ft | 338 kts | 138° |
| 2026-05-05 17:55 | 34.86283 | -119.60321 | 19763 ft | 336 kts | 129° |
| 2026-05-05 17:55 | 34.84808 | -119.58104 | 19449 ft | 339 kts | 126° |
| 2026-05-05 17:55 | 34.83356 | -119.55818 | 19122 ft | 345 kts | 126° |
| 2026-05-05 17:55 | 34.81872 | -119.53515 | 18767 ft | 346 kts | 127° |
| 2026-05-05 17:56 | 34.80380 | -119.51253 | 18429 ft | 348 kts | 128° |
| 2026-05-05 17:56 | 34.78850 | -119.48971 | 18053 ft | 348 kts | 129° |
| 2026-05-05 17:56 | 34.77316 | -119.46693 | 17677 ft | 347 kts | 128° |
| 2026-05-05 17:56 | 34.75809 | -119.44417 | 17313 ft | 344 kts | 128° |
| 2026-05-05 17:57 | 34.74332 | -119.42156 | 16981 ft | 340 kts | 128° |
| 2026-05-05 17:57 | 34.72868 | -119.39912 | 16637 ft | 338 kts | 128° |
| 2026-05-05 17:57 | 34.71411 | -119.37682 | 16309 ft | 335 kts | 128° |
| 2026-05-05 17:57 | 34.69969 | -119.35475 | 15990 ft | 332 kts | 128° |
| 2026-05-05 17:58 | 34.68555 | -119.33318 | 15658 ft | 330 kts | 127° |
| 2026-05-05 17:58 | 34.67128 | -119.31145 | 15339 ft | 328 kts | 128° |
| 2026-05-05 17:58 | 34.65711 | -119.28989 | 15014 ft | 326 kts | 127° |
| 2026-05-05 17:58 | 34.64308 | -119.26848 | 14712 ft | 324 kts | 126° |
| 2026-05-05 17:59 | 34.63060 | -119.24586 | 14394 ft | 318 kts | 119° |
| 2026-05-05 17:59 | 34.61963 | -119.22279 | 14030 ft | 311 kts | 117° |
| 2026-05-05 17:59 | 34.60909 | -119.20029 | 13707 ft | 302 kts | 118° |
| 2026-05-05 17:59 | 34.59867 | -119.17859 | 13394 ft | 293 kts | 118° |
| 2026-05-05 18:00 | 34.58843 | -119.15769 | 13090 ft | 285 kts | 118° |
| 2026-05-05 18:00 | 34.57838 | -119.13731 | 12815 ft | 279 kts | 118° |
| 2026-05-05 18:00 | 34.56870 | -119.11708 | 12572 ft | 274 kts | 114° |
| 2026-05-05 18:00 | 34.56162 | -119.09575 | 12311 ft | 274 kts | 106° |
| 2026-05-05 18:01 | 34.55538 | -119.07419 | 12049 ft | 276 kts | 107° |
| 2026-05-05 18:01 | 34.54806 | -119.05264 | 11746 ft | 279 kts | 122° |
| 2026-05-05 18:01 | 34.53378 | -119.03674 | 11507 ft | 281 kts | 144° |
| 2026-05-05 18:01 | 34.51749 | -119.02374 | 11197 ft | 281 kts | 146° |
| 2026-05-05 18:02 | 34.50114 | -119.01077 | 10936 ft | 280 kts | 146° |
| 2026-05-05 18:02 | 34.48497 | -118.99776 | 10646 ft | 280 kts | 145° |
| 2026-05-05 18:02 | 34.46881 | -118.98463 | 10383 ft | 279 kts | 144° |
| 2026-05-05 18:02 | 34.45274 | -118.97153 | 10108 ft | 278 kts | 144° |
| 2026-05-05 18:03 | 34.43699 | -118.95870 | 9854 ft | 274 kts | 145° |
| 2026-05-05 18:03 | 34.42115 | -118.94589 | 9573 ft | 272 kts | 146° |
| 2026-05-05 18:03 | 34.40545 | -118.93325 | 9321 ft | 270 kts | 146° |
| 2026-05-05 18:03 | 34.38995 | -118.92077 | 9075 ft | 268 kts | 146° |
| 2026-05-05 18:04 | 34.36647 | -118.90123 | 8697 ft | 264 kts | 140° |
| 2026-05-05 18:04 | 34.35278 | -118.88651 | 8465 ft | 262 kts | 136° |
| 2026-05-05 18:04 | 34.33955 | -118.87147 | 8223 ft | 260 kts | 136° |
| 2026-05-05 18:04 | 34.32640 | -118.85661 | 8006 ft | 258 kts | 136° |
| 2026-05-05 18:05 | 34.31324 | -118.84197 | 7767 ft | 255 kts | 137° |
| 2026-05-05 18:05 | 34.30019 | -118.82758 | 7539 ft | 253 kts | 137° |
| 2026-05-05 18:05 | 34.28736 | -118.81350 | 7323 ft | 251 kts | 137° |
| 2026-05-05 18:05 | 34.27445 | -118.79936 | 7105 ft | 250 kts | 136° |
| 2026-05-05 18:06 | 34.26390 | -118.78303 | 6820 ft | 248 kts | 113° |
| 2026-05-05 18:06 | 34.25928 | -118.77018 | 6670 ft | 247 kts | 112° |
| 2026-05-05 18:06 | 34.25013 | -118.74497 | 6305 ft | 248 kts | 112° |
| 2026-05-05 18:06 | 34.24311 | -118.72587 | 6061 ft | 247 kts | 112° |
| 2026-05-05 18:07 | 34.23620 | -118.70710 | 6017 ft | 243 kts | 112° |
| 2026-05-05 18:07 | 34.22939 | -118.68861 | 6013 ft | 240 kts | 112° |
| 2026-05-05 18:07 | 34.22259 | -118.67017 | 6012 ft | 241 kts | 112° |
| 2026-05-05 18:07 | 34.21570 | -118.65149 | 6012 ft | 247 kts | 113° |
| 2026-05-05 18:08 | 34.20880 | -118.63280 | 5878 ft | 245 kts | 113° |
| 2026-05-05 18:08 | 34.20202 | -118.61396 | 5473 ft | 241 kts | 108° |
| 2026-05-05 18:08 | 34.19989 | -118.59427 | 4853 ft | 238 kts | 88° |
| 2026-05-05 18:08 | 34.20024 | -118.57431 | 4218 ft | 237 kts | 89° |
| 2026-05-05 18:09 | 34.20011 | -118.55469 | 3643 ft | 233 kts | 90° |
| 2026-05-05 18:09 | 34.19990 | -118.53537 | 3396 ft | 227 kts | 89° |
| 2026-05-05 18:09 | 34.19974 | -118.51582 | 3157 ft | 234 kts | 89° |
| 2026-05-05 18:09 | 34.19953 | -118.49694 | 2866 ft | 214 kts | 91° |
| 2026-05-05 18:10 | 34.19930 | -118.48008 | 2604 ft | 187 kts | 92° |
| 2026-05-05 18:10 | 34.19910 | -118.46530 | 2344 ft | 167 kts | 91° |
| 2026-05-05 18:10 | 34.19894 | -118.45199 | 2183 ft | 157 kts | 93° |
| 2026-05-05 18:10 | 34.19881 | -118.43878 | 1975 ft | 162 kts | 93° |
| 2026-05-05 18:11 | 34.19869 | -118.42529 | 1656 ft | 156 kts | 90° |
| 2026-05-05 18:11 | 34.19853 | -118.41240 | 1466 ft | 153 kts | 92° |
| 2026-05-05 18:11 | 34.19826 | -118.39951 | 1313 ft | 154 kts | 93° |
| 2026-05-05 18:11 | 34.19802 | -118.38662 | 1092 ft | 152 kts | 90° |
| 2026-05-05 18:12 | 34.19794 | -118.37384 | 879 ft | 149 kts | 91° |
| 2026-05-05 18:12 | 34.19781 | -118.36223 | 698 ft | 128 kts | 85° |
| 2026-05-05 18:12 | 34.19765 | -118.35563 | 697 ft | 55 kts | 89° |
| 2026-05-05 18:12 | 34.19768 | -118.35250 | 694 ft | 11 kts | 91° |
| 2026-05-05 18:13 | 34.19763 | -118.35219 | 695 ft | 0 kts | 103° |
| 2026-05-05 18:13 | 34.19759 | -118.35215 | 695 ft | 3 kts | 138° |
| 2026-05-05 18:13 | 34.19731 | -118.35223 | 695 ft | 1 kts | 213° |
| 2026-05-05 18:13 | 34.19719 | -118.35233 | 686 ft | 0 kts | 209° |
| 2026-05-05 18:14 | 34.19703 | -118.35239 | 692 ft | 4 kts | 193° |
| 2026-05-05 18:14 | 34.19695 | -118.35240 | 691 ft | 3 kts | 192° |
| 2026-05-05 18:14 | 34.19683 | -118.35241 | 688 ft | 2 kts | 178° |
| 2026-05-05 18:15 | 34.19678 | -118.35241 | 691 ft | 0 kts | 179° |